Floweree, MT (59440)

07:11 MST le 08 décembre 2016 (GMT -0700)
East of Bootlegger Trail and Floweree Road | | Change Station

Alt. 3629 ft 47.75 °N, 111.27 °W | Updated 7 seconds ago

Nuageux
Nuageux
-4.0 ° F
Paraît -4 ° F
N
2.9
Vent Variable Vent de NNO
Gusts 4.9 mph

Aujourd'hui
Haut(e) -- | Bas -- ° F
--% Risque de précip.
Hier
Haut(e) -- | Bas -- ° F
Precip. -- pouce
Pression 30.90 pouce
Visibilité 10.0 Miles terrestres
Nuages Couvert 6000 ft
Refroidissement éolien -4 ° F
Point de rosée -17 ° F
Humidité 53%
Précipitations 0.00 pouce
Profondeur de la couche neigeuse Non disponible.
8:00 AM 4:32 PM
Lune gibbeuse croissante, 63% visible
METAR KGFA 081358Z AUTO 06004KT 10SM OVC060 M19/M21 A3052 RMK AO2 SHSNB09E28 SLP464 T11951215 TSNO $
Pression 30.90 pouce
Visibilité 10.0 Miles terrestres
Nuages Couvert 6000 ft
Refroidissement éolien -4 ° F
Point de rosée -17 ° F
Humidité 53%
Précipitations 0.00 pouce
Profondeur de la couche neigeuse Non disponible.
8:00 AM 4:32 PM
Lune gibbeuse croissante, 63% visible
METAR KGFA 081358Z AUTO 06004KT 10SM OVC060 M19/M21 A3052 RMK AO2 SHSNB09E28 SLP464 T11951215 TSNO $

10-Day Weather Forecast

Almanac

Astronomie

Dec. 08, 2016 Lever Coucher
Temps réel
Crépuscule civil
Crépuscule nautique
Crépuscule astronomique
Lune
Durée de lumière visible
Longueur du jour
Tomorrow will be .
, % of the Moon is Illuminated

Extrêmes aujourd'hui

State Highs State Lows

Community

WunderPhotos

Upload Photos

1,956,268 Photos téléchargées !

WunderBlog® & News

Nearby

Qualité de l'air

  Qualité de l'air Indice de la qualité de l'air Polluant
Not available.

Épaisseur de neige

Station Depth Altitude

Activité sismique

Ville Distance Mag. Time & Date
Minimum magnitude displayed is 2.5.

Températures des eaux côtières

Lieu Température

Stations

Stations météo à proximité

Emplacement de la station Température Refroidissement éolien Point de rosée Humidité Vent Precip. Alt. Mise à jour Type
                   

Watches & Warnings

There are currently no watches in effect.